sensor_id;sensor_type;location;lat;lon;timestamp;P1;durP1;ratioP1;P2;durP2;ratioP2
6019;SDS011;3038;51.122;6.840;2023-07-22T00:00:40;14.10;;;9.43;;
6019;SDS011;3038;51.122;6.840;2023-07-22T00:03:06;11.30;;;9.13;;
6019;SDS011;3038;51.122;6.840;2023-07-22T00:05:31;12.17;;;9.30;;
6019;SDS011;3038;51.122;6.840;2023-07-22T00:07:56;11.23;;;8.30;;
6019;SDS011;3038;51.122;6.840;2023-07-22T00:10:21;11.77;;;9.13;;
6019;SDS011;3038;51.122;6.840;2023-07-22T00:12:46;10.87;;;8.93;;
6019;SDS011;3038;51.122;6.840;2023-07-22T00:15:12;9.00;;;8.10;;
6019;SDS011;3038;51.122;6.840;2023-07-22T00:17:37;10.77;;;7.93;;
6019;SDS011;3038;51.122;6.840;2023-07-22T00:20:03;12.77;;;8.67;;
6019;SDS011;3038;51.122;6.840;2023-07-22T00:22:29;11.90;;;9.30;;
6019;SDS011;3038;51.122;6.840;2023-07-22T00:24:54;16.77;;;9.90;;
6019;SDS011;3038;51.122;6.840;2023-07-22T00:27:19;10.47;;;8.97;;
6019;SDS011;3038;51.122;6.840;2023-07-22T00:29:45;11.10;;;9.90;;
6019;SDS011;3038;51.122;6.840;2023-07-22T00:32:10;10.70;;;9.50;;
6019;SDS011;3038;51.122;6.840;2023-07-22T00:34:35;13.23;;;9.40;;
6019;SDS011;3038;51.122;6.840;2023-07-22T00:37:01;12.00;;;8.90;;
6019;SDS011;3038;51.122;6.840;2023-07-22T00:39:27;10.40;;;9.33;;
6019;SDS011;3038;51.122;6.840;2023-07-22T00:41:52;9.20;;;7.97;;
6019;SDS011;3038;51.122;6.840;2023-07-22T00:44:17;15.37;;;8.77;;
6019;SDS011;3038;51.122;6.840;2023-07-22T00:46:42;9.87;;;8.63;;
6019;SDS011;3038;51.122;6.840;2023-07-22T00:49:09;9.90;;;8.43;;
6019;SDS011;3038;51.122;6.840;2023-07-22T00:51:34;10.73;;;8.70;;
6019;SDS011;3038;51.122;6.840;2023-07-22T00:54:00;11.50;;;9.77;;
6019;SDS011;3038;51.122;6.840;2023-07-22T00:56:26;11.33;;;8.87;;
6019;SDS011;3038;51.122;6.840;2023-07-22T00:58:52;11.43;;;9.00;;
6019;SDS011;3038;51.122;6.840;2023-07-22T01:01:17;8.80;;;7.87;;
6019;SDS011;3038;51.122;6.840;2023-07-22T01:03:42;9.83;;;8.90;;
6019;SDS011;3038;51.122;6.840;2023-07-22T01:06:08;10.30;;;9.20;;
6019;SDS011;3038;51.122;6.840;2023-07-22T01:08:34;9.77;;;8.70;;
6019;SDS011;3038;51.122;6.840;2023-07-22T01:10:59;12.50;;;9.00;;
6019;SDS011;3038;51.122;6.840;2023-07-22T01:13:24;11.57;;;8.97;;
6019;SDS011;3038;51.122;6.840;2023-07-22T01:15:50;10.70;;;9.10;;
6019;SDS011;3038;51.122;6.840;2023-07-22T01:18:15;11.37;;;9.60;;
6019;SDS011;3038;51.122;6.840;2023-07-22T01:20:40;12.00;;;9.50;;
6019;SDS011;3038;51.122;6.840;2023-07-22T01:23:06;11.20;;;9.93;;
6019;SDS011;3038;51.122;6.840;2023-07-22T01:25:32;9.30;;;8.40;;
6019;SDS011;3038;51.122;6.840;2023-07-22T01:27:57;10.17;;;9.00;;
6019;SDS011;3038;51.122;6.840;2023-07-22T01:30:22;10.00;;;8.57;;
6019;SDS011;3038;51.122;6.840;2023-07-22T01:32:50;11.73;;;10.53;;
6019;SDS011;3038;51.122;6.840;2023-07-22T01:35:15;12.30;;;10.03;;
6019;SDS011;3038;51.122;6.840;2023-07-22T01:37:40;11.00;;;9.70;;
6019;SDS011;3038;51.122;6.840;2023-07-22T01:40:06;10.70;;;9.63;;
6019;SDS011;3038;51.122;6.840;2023-07-22T01:42:37;13.53;;;10.07;;
6019;SDS011;3038;51.122;6.840;2023-07-22T01:45:02;15.00;;;9.83;;
6019;SDS011;3038;51.122;6.840;2023-07-22T01:47:27;14.73;;;9.57;;
6019;SDS011;3038;51.122;6.840;2023-07-22T01:49:52;11.80;;;10.27;;
6019;SDS011;3038;51.122;6.840;2023-07-22T01:52:18;11.17;;;9.57;;
6019;SDS011;3038;51.122;6.840;2023-07-22T01:54:43;14.03;;;8.97;;
6019;SDS011;3038;51.122;6.840;2023-07-22T01:57:08;11.40;;;10.17;;
6019;SDS011;3038;51.122;6.840;2023-07-22T01:59:34;9.60;;;8.10;;
6019;SDS011;3038;51.122;6.840;2023-07-22T02:01:59;11.00;;;9.50;;
6019;SDS011;3038;51.122;6.840;2023-07-22T02:04:24;10.47;;;8.73;;
6019;SDS011;3038;51.122;6.840;2023-07-22T02:06:49;12.00;;;9.30;;
6019;SDS011;3038;51.122;6.840;2023-07-22T02:09:15;10.77;;;9.67;;
6019;SDS011;3038;51.122;6.840;2023-07-22T02:11:40;11.67;;;9.43;;
6019;SDS011;3038;51.122;6.840;2023-07-22T02:14:05;10.77;;;8.90;;
6019;SDS011;3038;51.122;6.840;2023-07-22T02:16:34;9.53;;;8.53;;
6019;SDS011;3038;51.122;6.840;2023-07-22T02:19:00;11.70;;;9.03;;
6019;SDS011;3038;51.122;6.840;2023-07-22T02:21:25;10.83;;;9.10;;
6019;SDS011;3038;51.122;6.840;2023-07-22T02:23:50;10.17;;;8.90;;
6019;SDS011;3038;51.122;6.840;2023-07-22T02:26:15;10.53;;;8.90;;
6019;SDS011;3038;51.122;6.840;2023-07-22T02:28:41;8.43;;;7.43;;
6019;SDS011;3038;51.122;6.840;2023-07-22T02:31:06;8.70;;;7.80;;
6019;SDS011;3038;51.122;6.840;2023-07-22T02:33:32;9.37;;;7.70;;
6019;SDS011;3038;51.122;6.840;2023-07-22T02:35:57;9.70;;;8.20;;
6019;SDS011;3038;51.122;6.840;2023-07-22T02:38:23;11.83;;;8.43;;
6019;SDS011;3038;51.122;6.840;2023-07-22T02:40:48;12.33;;;8.50;;
6019;SDS011;3038;51.122;6.840;2023-07-22T02:43:13;9.23;;;8.33;;
6019;SDS011;3038;51.122;6.840;2023-07-22T02:45:39;9.83;;;8.20;;
6019;SDS011;3038;51.122;6.840;2023-07-22T02:48:04;9.10;;;7.67;;
6019;SDS011;3038;51.122;6.840;2023-07-22T02:50:29;12.23;;;8.97;;
6019;SDS011;3038;51.122;6.840;2023-07-22T02:52:55;9.23;;;7.97;;
6019;SDS011;3038;51.122;6.840;2023-07-22T02:55:21;9.67;;;8.67;;
6019;SDS011;3038;51.122;6.840;2023-07-22T02:57:49;9.53;;;7.57;;
6019;SDS011;3038;51.122;6.840;2023-07-22T03:00:16;10.10;;;8.40;;
6019;SDS011;3038;51.122;6.840;2023-07-22T03:02:49;10.60;;;7.33;;
6019;SDS011;3038;51.122;6.840;2023-07-22T03:05:14;11.00;;;7.57;;
6019;SDS011;3038;51.122;6.840;2023-07-22T03:07:40;9.27;;;8.17;;
6019;SDS011;3038;51.122;6.840;2023-07-22T03:10:05;9.60;;;8.37;;
6019;SDS011;3038;51.122;6.840;2023-07-22T03:12:31;9.10;;;8.07;;
6019;SDS011;3038;51.122;6.840;2023-07-22T03:14:56;10.10;;;8.80;;
6019;SDS011;3038;51.122;6.840;2023-07-22T03:17:22;9.97;;;8.80;;
6019;SDS011;3038;51.122;6.840;2023-07-22T03:19:47;8.97;;;8.07;;
6019;SDS011;3038;51.122;6.840;2023-07-22T03:22:13;13.30;;;8.77;;
6019;SDS011;3038;51.122;6.840;2023-07-22T03:24:39;12.37;;;8.50;;
6019;SDS011;3038;51.122;6.840;2023-07-22T03:27:04;11.50;;;9.60;;
6019;SDS011;3038;51.122;6.840;2023-07-22T03:29:30;8.83;;;7.93;;
6019;SDS011;3038;51.122;6.840;2023-07-22T03:31:55;10.07;;;8.60;;
6019;SDS011;3038;51.122;6.840;2023-07-22T03:34:22;9.70;;;8.17;;
6019;SDS011;3038;51.122;6.840;2023-07-22T03:36:47;8.93;;;7.90;;
6019;SDS011;3038;51.122;6.840;2023-07-22T03:39:12;9.47;;;8.43;;
6019;SDS011;3038;51.122;6.840;2023-07-22T03:41:38;9.73;;;8.70;;
6019;SDS011;3038;51.122;6.840;2023-07-22T03:44:03;10.93;;;9.83;;
6019;SDS011;3038;51.122;6.840;2023-07-22T03:46:28;11.70;;;9.10;;
6019;SDS011;3038;51.122;6.840;2023-07-22T03:48:53;9.90;;;8.80;;
6019;SDS011;3038;51.122;6.840;2023-07-22T03:51:19;9.97;;;8.83;;
6019;SDS011;3038;51.122;6.840;2023-07-22T03:53:44;11.60;;;9.30;;
6019;SDS011;3038;51.122;6.840;2023-07-22T03:56:10;9.90;;;9.00;;
6019;SDS011;3038;51.122;6.840;2023-07-22T03:58:35;10.90;;;8.40;;
6019;SDS011;3038;51.122;6.840;2023-07-22T04:01:00;10.73;;;9.63;;
6019;SDS011;3038;51.122;6.840;2023-07-22T04:03:25;11.47;;;9.00;;
6019;SDS011;3038;51.122;6.840;2023-07-22T04:05:57;11.90;;;10.40;;
6019;SDS011;3038;51.122;6.840;2023-07-22T04:08:22;9.90;;;8.90;;
6019;SDS011;3038;51.122;6.840;2023-07-22T04:10:53;9.60;;;8.70;;
6019;SDS011;3038;51.122;6.840;2023-07-22T04:13:18;14.67;;;9.37;;
6019;SDS011;3038;51.122;6.840;2023-07-22T04:15:44;9.97;;;8.97;;
6019;SDS011;3038;51.122;6.840;2023-07-22T04:18:09;9.30;;;8.40;;
6019;SDS011;3038;51.122;6.840;2023-07-22T04:20:35;10.97;;;9.57;;
6019;SDS011;3038;51.122;6.840;2023-07-22T04:23:00;11.13;;;9.50;;
6019;SDS011;3038;51.122;6.840;2023-07-22T04:25:25;10.03;;;8.60;;
6019;SDS011;3038;51.122;6.840;2023-07-22T04:27:50;10.87;;;9.77;;
6019;SDS011;3038;51.122;6.840;2023-07-22T04:30:15;9.67;;;7.90;;
6019;SDS011;3038;51.122;6.840;2023-07-22T04:32:46;9.30;;;8.40;;
6019;SDS011;3038;51.122;6.840;2023-07-22T04:35:11;10.30;;;9.17;;
6019;SDS011;3038;51.122;6.840;2023-07-22T04:37:37;11.60;;;8.67;;
6019;SDS011;3038;51.122;6.840;2023-07-22T04:40:02;9.57;;;8.67;;
6019;SDS011;3038;51.122;6.840;2023-07-22T04:42:31;10.20;;;9.17;;
6019;SDS011;3038;51.122;6.840;2023-07-22T04:44:56;10.97;;;9.87;;
6019;SDS011;3038;51.122;6.840;2023-07-22T04:47:21;10.33;;;9.33;;
6019;SDS011;3038;51.122;6.840;2023-07-22T04:49:46;24.00;;;10.40;;
6019;SDS011;3038;51.122;6.840;2023-07-22T04:52:12;10.87;;;9.70;;
6019;SDS011;3038;51.122;6.840;2023-07-22T04:54:37;10.67;;;9.57;;
6019;SDS011;3038;51.122;6.840;2023-07-22T04:57:02;9.53;;;8.67;;
6019;SDS011;3038;51.122;6.840;2023-07-22T04:59:28;10.10;;;9.10;;
6019;SDS011;3038;51.122;6.840;2023-07-22T05:01:53;11.10;;;8.80;;
6019;SDS011;3038;51.122;6.840;2023-07-22T05:04:18;10.43;;;9.30;;
6019;SDS011;3038;51.122;6.840;2023-07-22T05:06:43;9.13;;;8.23;;
6019;SDS011;3038;51.122;6.840;2023-07-22T05:09:09;11.10;;;10.00;;
6019;SDS011;3038;51.122;6.840;2023-07-22T05:11:34;11.10;;;8.90;;
6019;SDS011;3038;51.122;6.840;2023-07-22T05:13:59;10.10;;;9.03;;
6019;SDS011;3038;51.122;6.840;2023-07-22T05:16:24;9.40;;;8.50;;
6019;SDS011;3038;51.122;6.840;2023-07-22T05:18:49;10.73;;;9.30;;
6019;SDS011;3038;51.122;6.840;2023-07-22T05:21:15;11.80;;;10.60;;
6019;SDS011;3038;51.122;6.840;2023-07-22T05:23:40;12.27;;;9.57;;
6019;SDS011;3038;51.122;6.840;2023-07-22T05:26:05;9.47;;;8.60;;
6019;SDS011;3038;51.122;6.840;2023-07-22T05:28:30;10.53;;;8.80;;
6019;SDS011;3038;51.122;6.840;2023-07-22T05:30:56;9.63;;;8.73;;
6019;SDS011;3038;51.122;6.840;2023-07-22T05:33:21;10.33;;;9.33;;
6019;SDS011;3038;51.122;6.840;2023-07-22T05:35:46;10.70;;;9.57;;
6019;SDS011;3038;51.122;6.840;2023-07-22T05:38:11;9.60;;;8.63;;
6019;SDS011;3038;51.122;6.840;2023-07-22T05:40:37;10.60;;;9.50;;
6019;SDS011;3038;51.122;6.840;2023-07-22T05:43:02;10.57;;;9.30;;
6019;SDS011;3038;51.122;6.840;2023-07-22T05:45:27;10.17;;;9.13;;
6019;SDS011;3038;51.122;6.840;2023-07-22T05:47:53;10.07;;;9.13;;
6019;SDS011;3038;51.122;6.840;2023-07-22T05:50:18;10.40;;;9.20;;
6019;SDS011;3038;51.122;6.840;2023-07-22T05:52:43;10.37;;;9.37;;
6019;SDS011;3038;51.122;6.840;2023-07-22T05:55:09;10.30;;;9.30;;
6019;SDS011;3038;51.122;6.840;2023-07-22T05:57:34;10.77;;;9.80;;
6019;SDS011;3038;51.122;6.840;2023-07-22T05:59:59;12.00;;;9.17;;
6019;SDS011;3038;51.122;6.840;2023-07-22T06:04:54;10.00;;;9.00;;
6019;SDS011;3038;51.122;6.840;2023-07-22T06:07:19;10.57;;;9.57;;
6019;SDS011;3038;51.122;6.840;2023-07-22T06:09:44;11.27;;;10.17;;
6019;SDS011;3038;51.122;6.840;2023-07-22T06:12:09;11.63;;;10.43;;
6019;SDS011;3038;51.122;6.840;2023-07-22T06:14:34;9.63;;;8.63;;
6019;SDS011;3038;51.122;6.840;2023-07-22T06:17:00;11.13;;;8.83;;
6019;SDS011;3038;51.122;6.840;2023-07-22T06:19:25;9.40;;;8.50;;
6019;SDS011;3038;51.122;6.840;2023-07-22T06:21:50;9.57;;;8.67;;
6019;SDS011;3038;51.122;6.840;2023-07-22T06:24:16;9.10;;;8.20;;
6019;SDS011;3038;51.122;6.840;2023-07-22T06:26:41;11.10;;;9.43;;
6019;SDS011;3038;51.122;6.840;2023-07-22T06:29:06;10.00;;;9.00;;
6019;SDS011;3038;51.122;6.840;2023-07-22T06:31:31;12.10;;;8.67;;
6019;SDS011;3038;51.122;6.840;2023-07-22T06:33:57;9.50;;;7.37;;
6019;SDS011;3038;51.122;6.840;2023-07-22T06:36:22;8.73;;;7.27;;
6019;SDS011;3038;51.122;6.840;2023-07-22T06:38:48;8.03;;;7.30;;
6019;SDS011;3038;51.122;6.840;2023-07-22T06:41:13;9.60;;;6.60;;
6019;SDS011;3038;51.122;6.840;2023-07-22T06:43:38;8.43;;;7.50;;
6019;SDS011;3038;51.122;6.840;2023-07-22T06:46:04;9.17;;;7.63;;
6019;SDS011;3038;51.122;6.840;2023-07-22T06:48:29;9.50;;;7.30;;
6019;SDS011;3038;51.122;6.840;2023-07-22T06:50:54;9.63;;;8.40;;
6019;SDS011;3038;51.122;6.840;2023-07-22T06:53:19;9.13;;;7.50;;
6019;SDS011;3038;51.122;6.840;2023-07-22T06:55:48;9.37;;;8.33;;
6019;SDS011;3038;51.122;6.840;2023-07-22T06:58:14;10.50;;;7.77;;
6019;SDS011;3038;51.122;6.840;2023-07-22T07:00:39;9.03;;;8.13;;
6019;SDS011;3038;51.122;6.840;2023-07-22T07:03:04;10.67;;;7.73;;
6019;SDS011;3038;51.122;6.840;2023-07-22T07:05:29;8.67;;;7.83;;
6019;SDS011;3038;51.122;6.840;2023-07-22T07:07:55;10.00;;;8.20;;
6019;SDS011;3038;51.122;6.840;2023-07-22T07:10:20;8.67;;;7.70;;
6019;SDS011;3038;51.122;6.840;2023-07-22T07:12:45;8.87;;;8.07;;
6019;SDS011;3038;51.122;6.840;2023-07-22T07:15:10;13.20;;;8.30;;
6019;SDS011;3038;51.122;6.840;2023-07-22T07:17:36;10.30;;;7.47;;
6019;SDS011;3038;51.122;6.840;2023-07-22T07:20:01;10.67;;;9.40;;
6019;SDS011;3038;51.122;6.840;2023-07-22T07:22:26;10.00;;;8.20;;
6019;SDS011;3038;51.122;6.840;2023-07-22T07:24:51;10.33;;;7.83;;
6019;SDS011;3038;51.122;6.840;2023-07-22T07:27:16;9.00;;;8.20;;
6019;SDS011;3038;51.122;6.840;2023-07-22T07:29:41;8.67;;;7.83;;
6019;SDS011;3038;51.122;6.840;2023-07-22T07:32:07;9.60;;;8.70;;
6019;SDS011;3038;51.122;6.840;2023-07-22T07:34:32;9.00;;;8.20;;
6019;SDS011;3038;51.122;6.840;2023-07-22T07:36:57;10.63;;;8.73;;
6019;SDS011;3038;51.122;6.840;2023-07-22T07:39:22;10.00;;;9.00;;
6019;SDS011;3038;51.122;6.840;2023-07-22T07:41:47;9.30;;;8.40;;
6019;SDS011;3038;51.122;6.840;2023-07-22T07:44:13;9.10;;;8.20;;
6019;SDS011;3038;51.122;6.840;2023-07-22T07:46:38;9.07;;;8.00;;
6019;SDS011;3038;51.122;6.840;2023-07-22T07:49:03;9.03;;;7.90;;
6019;SDS011;3038;51.122;6.840;2023-07-22T07:51:29;10.17;;;8.73;;
6019;SDS011;3038;51.122;6.840;2023-07-22T07:53:54;11.63;;;8.77;;
6019;SDS011;3038;51.122;6.840;2023-07-22T07:56:20;12.07;;;9.10;;
6019;SDS011;3038;51.122;6.840;2023-07-22T07:58:46;10.07;;;9.07;;
6019;SDS011;3038;51.122;6.840;2023-07-22T08:01:11;9.10;;;8.20;;
6019;SDS011;3038;51.122;6.840;2023-07-22T08:03:36;8.83;;;8.00;;
6019;SDS011;3038;51.122;6.840;2023-07-22T08:06:02;10.53;;;9.37;;
6019;SDS011;3038;51.122;6.840;2023-07-22T08:08:27;10.43;;;9.40;;
6019;SDS011;3038;51.122;6.840;2023-07-22T08:13:24;11.87;;;9.13;;
6019;SDS011;3038;51.122;6.840;2023-07-22T08:15:50;8.97;;;8.07;;
6019;SDS011;3038;51.122;6.840;2023-07-22T08:18:15;11.30;;;9.20;;
6019;SDS011;3038;51.122;6.840;2023-07-22T08:20:40;10.83;;;9.83;;
6019;SDS011;3038;51.122;6.840;2023-07-22T08:23:06;11.33;;;9.80;;
6019;SDS011;3038;51.122;6.840;2023-07-22T08:25:31;13.63;;;10.53;;
6019;SDS011;3038;51.122;6.840;2023-07-22T08:27:57;12.00;;;10.07;;
6019;SDS011;3038;51.122;6.840;2023-07-22T08:30:22;11.30;;;9.47;;
6019;SDS011;3038;51.122;6.840;2023-07-22T08:32:47;10.67;;;9.47;;
6019;SDS011;3038;51.122;6.840;2023-07-22T08:35:12;11.03;;;9.13;;
6019;SDS011;3038;51.122;6.840;2023-07-22T08:37:37;9.10;;;8.20;;
6019;SDS011;3038;51.122;6.840;2023-07-22T08:40:03;9.80;;;8.73;;
6019;SDS011;3038;51.122;6.840;2023-07-22T08:42:28;11.37;;;10.17;;
6019;SDS011;3038;51.122;6.840;2023-07-22T08:44:56;12.43;;;10.57;;
6019;SDS011;3038;51.122;6.840;2023-07-22T08:47:21;10.17;;;9.27;;
6019;SDS011;3038;51.122;6.840;2023-07-22T08:49:50;9.47;;;8.57;;
6019;SDS011;3038;51.122;6.840;2023-07-22T08:52:16;10.23;;;8.60;;
6019;SDS011;3038;51.122;6.840;2023-07-22T08:54:42;9.80;;;8.80;;
6019;SDS011;3038;51.122;6.840;2023-07-22T08:57:08;9.67;;;8.63;;
6019;SDS011;3038;51.122;6.840;2023-07-22T08:59:34;10.27;;;9.27;;
6019;SDS011;3038;51.122;6.840;2023-07-22T09:01:59;8.87;;;7.97;;
6019;SDS011;3038;51.122;6.840;2023-07-22T09:04:25;9.33;;;7.77;;
6019;SDS011;3038;51.122;6.840;2023-07-22T09:06:51;9.17;;;8.27;;
6019;SDS011;3038;51.122;6.840;2023-07-22T09:09:16;8.77;;;7.87;;
6019;SDS011;3038;51.122;6.840;2023-07-22T09:11:42;7.93;;;7.20;;
6019;SDS011;3038;51.122;6.840;2023-07-22T09:14:07;10.10;;;8.10;;
6019;SDS011;3038;51.122;6.840;2023-07-22T09:16:33;8.77;;;8.00;;
6019;SDS011;3038;51.122;6.840;2023-07-22T09:18:58;9.13;;;8.00;;
6019;SDS011;3038;51.122;6.840;2023-07-22T09:21:23;10.03;;;9.13;;
6019;SDS011;3038;51.122;6.840;2023-07-22T09:23:49;10.03;;;9.00;;
6019;SDS011;3038;51.122;6.840;2023-07-22T09:26:15;8.17;;;7.37;;
6019;SDS011;3038;51.122;6.840;2023-07-22T09:28:54;6.90;;;6.20;;
6019;SDS011;3038;51.122;6.840;2023-07-22T09:31:23;6.60;;;6.00;;
6019;SDS011;3038;51.122;6.840;2023-07-22T09:33:48;6.17;;;5.60;;
6019;SDS011;3038;51.122;6.840;2023-07-22T09:36:14;9.13;;;6.20;;
6019;SDS011;3038;51.122;6.840;2023-07-22T09:38:39;5.97;;;5.47;;
6019;SDS011;3038;51.122;6.840;2023-07-22T09:41:04;6.60;;;4.97;;
6019;SDS011;3038;51.122;6.840;2023-07-22T09:43:30;5.20;;;4.70;;
6019;SDS011;3038;51.122;6.840;2023-07-22T09:45:55;5.57;;;4.97;;
6019;SDS011;3038;51.122;6.840;2023-07-22T09:48:21;7.30;;;5.60;;
6019;SDS011;3038;51.122;6.840;2023-07-22T09:50:46;8.00;;;5.87;;
6019;SDS011;3038;51.122;6.840;2023-07-22T09:53:20;5.83;;;4.77;;
6019;SDS011;3038;51.122;6.840;2023-07-22T09:55:46;10.80;;;6.90;;
6019;SDS011;3038;51.122;6.840;2023-07-22T09:58:11;5.63;;;5.13;;
6019;SDS011;3038;51.122;6.840;2023-07-22T10:00:40;5.27;;;4.77;;
6019;SDS011;3038;51.122;6.840;2023-07-22T10:03:09;5.33;;;4.80;;
6019;SDS011;3038;51.122;6.840;2023-07-22T10:05:35;5.20;;;4.70;;
6019;SDS011;3038;51.122;6.840;2023-07-22T10:08:01;5.50;;;4.30;;
6019;SDS011;3038;51.122;6.840;2023-07-22T10:10:30;5.30;;;4.80;;
6019;SDS011;3038;51.122;6.840;2023-07-22T10:12:56;4.83;;;4.43;;
6019;SDS011;3038;51.122;6.840;2023-07-22T10:15:22;5.30;;;4.80;;
6019;SDS011;3038;51.122;6.840;2023-07-22T10:17:49;4.50;;;4.10;;
6019;SDS011;3038;51.122;6.840;2023-07-22T10:20:15;4.87;;;4.47;;
6019;SDS011;3038;51.122;6.840;2023-07-22T10:22:41;5.13;;;4.47;;
6019;SDS011;3038;51.122;6.840;2023-07-22T10:25:06;3.90;;;3.53;;
6019;SDS011;3038;51.122;6.840;2023-07-22T10:27:33;5.47;;;4.20;;
6019;SDS011;3038;51.122;6.840;2023-07-22T10:29:59;5.50;;;4.10;;
6019;SDS011;3038;51.122;6.840;2023-07-22T10:32:24;3.40;;;2.87;;
6019;SDS011;3038;51.122;6.840;2023-07-22T10:34:49;4.27;;;3.97;;
6019;SDS011;3038;51.122;6.840;2023-07-22T10:37:17;4.60;;;4.20;;
6019;SDS011;3038;51.122;6.840;2023-07-22T10:39:43;4.93;;;3.70;;
6019;SDS011;3038;51.122;6.840;2023-07-22T10:42:08;6.00;;;4.63;;
6019;SDS011;3038;51.122;6.840;2023-07-22T10:44:40;4.40;;;4.00;;
6019;SDS011;3038;51.122;6.840;2023-07-22T10:47:05;3.87;;;3.57;;
6019;SDS011;3038;51.122;6.840;2023-07-22T10:49:43;4.10;;;3.80;;
6019;SDS011;3038;51.122;6.840;2023-07-22T10:52:09;4.20;;;3.80;;
6019;SDS011;3038;51.122;6.840;2023-07-22T10:54:35;4.33;;;3.93;;
6019;SDS011;3038;51.122;6.840;2023-07-22T10:59:51;3.93;;;3.50;;
6019;SDS011;3038;51.122;6.840;2023-07-22T11:02:26;4.40;;;4.00;;
6019;SDS011;3038;51.122;6.840;2023-07-22T11:04:52;3.60;;;3.30;;
6019;SDS011;3038;51.122;6.840;2023-07-22T11:07:29;3.90;;;3.60;;
6019;SDS011;3038;51.122;6.840;2023-07-22T11:09:55;4.23;;;3.43;;
6019;SDS011;3038;51.122;6.840;2023-07-22T11:12:20;5.20;;;3.83;;
6019;SDS011;3038;51.122;6.840;2023-07-22T11:14:51;3.37;;;3.07;;
6019;SDS011;3038;51.122;6.840;2023-07-22T11:17:17;5.80;;;3.70;;
6019;SDS011;3038;51.122;6.840;2023-07-22T11:19:43;4.60;;;4.20;;
6019;SDS011;3038;51.122;6.840;2023-07-22T11:22:08;4.33;;;3.93;;
6019;SDS011;3038;51.122;6.840;2023-07-22T11:24:34;4.17;;;3.80;;
6019;SDS011;3038;51.122;6.840;2023-07-22T11:27:01;5.97;;;5.40;;
6019;SDS011;3038;51.122;6.840;2023-07-22T11:29:27;4.63;;;4.20;;
6019;SDS011;3038;51.122;6.840;2023-07-22T11:31:52;4.90;;;4.40;;
6019;SDS011;3038;51.122;6.840;2023-07-22T11:34:22;3.53;;;3.33;;
6019;SDS011;3038;51.122;6.840;2023-07-22T11:36:48;4.63;;;3.97;;
6019;SDS011;3038;51.122;6.840;2023-07-22T11:39:17;5.50;;;3.57;;
6019;SDS011;3038;51.122;6.840;2023-07-22T11:41:43;4.63;;;4.23;;
6019;SDS011;3038;51.122;6.840;2023-07-22T11:44:10;4.77;;;4.27;;
6019;SDS011;3038;51.122;6.840;2023-07-22T11:49:22;4.43;;;3.97;;
6019;SDS011;3038;51.122;6.840;2023-07-22T11:51:48;4.93;;;4.53;;
6019;SDS011;3038;51.122;6.840;2023-07-22T11:54:13;4.00;;;3.70;;
6019;SDS011;3038;51.122;6.840;2023-07-22T11:56:40;4.53;;;4.13;;
6019;SDS011;3038;51.122;6.840;2023-07-22T11:59:05;4.63;;;4.27;;
6019;SDS011;3038;51.122;6.840;2023-07-22T12:01:33;4.43;;;4.13;;
6019;SDS011;3038;51.122;6.840;2023-07-22T12:03:59;4.83;;;4.30;;
6019;SDS011;3038;51.122;6.840;2023-07-22T12:06:27;4.60;;;4.20;;
6019;SDS011;3038;51.122;6.840;2023-07-22T12:08:53;5.30;;;3.80;;
6019;SDS011;3038;51.122;6.840;2023-07-22T12:11:22;4.07;;;3.73;;
6019;SDS011;3038;51.122;6.840;2023-07-22T12:16:32;3.70;;;3.30;;
6019;SDS011;3038;51.122;6.840;2023-07-22T12:19:00;3.90;;;3.60;;
6019;SDS011;3038;51.122;6.840;2023-07-22T12:21:27;4.87;;;4.37;;
6019;SDS011;3038;51.122;6.840;2023-07-22T12:23:52;4.87;;;4.47;;
6019;SDS011;3038;51.122;6.840;2023-07-22T12:26:17;4.40;;;4.00;;
6019;SDS011;3038;51.122;6.840;2023-07-22T12:28:43;4.30;;;3.90;;
6019;SDS011;3038;51.122;6.840;2023-07-22T12:31:08;4.00;;;3.70;;
6019;SDS011;3038;51.122;6.840;2023-07-22T12:33:34;5.07;;;4.60;;
6019;SDS011;3038;51.122;6.840;2023-07-22T12:35:59;4.67;;;4.27;;
6019;SDS011;3038;51.122;6.840;2023-07-22T12:38:24;4.80;;;4.30;;
6019;SDS011;3038;51.122;6.840;2023-07-22T12:40:50;4.23;;;3.93;;
6019;SDS011;3038;51.122;6.840;2023-07-22T12:43:15;3.70;;;3.30;;
6019;SDS011;3038;51.122;6.840;2023-07-22T12:45:40;4.07;;;3.67;;
6019;SDS011;3038;51.122;6.840;2023-07-22T12:48:05;4.70;;;4.20;;
6019;SDS011;3038;51.122;6.840;2023-07-22T12:50:31;3.70;;;3.40;;
6019;SDS011;3038;51.122;6.840;2023-07-22T12:52:57;3.97;;;3.67;;
6019;SDS011;3038;51.122;6.840;2023-07-22T12:55:22;4.33;;;3.93;;
6019;SDS011;3038;51.122;6.840;2023-07-22T12:57:47;4.53;;;4.17;;
6019;SDS011;3038;51.122;6.840;2023-07-22T13:00:13;3.90;;;3.60;;
6019;SDS011;3038;51.122;6.840;2023-07-22T13:02:38;4.40;;;4.00;;
6019;SDS011;3038;51.122;6.840;2023-07-22T13:05:03;4.50;;;3.73;;
6019;SDS011;3038;51.122;6.840;2023-07-22T13:07:29;6.13;;;3.43;;
6019;SDS011;3038;51.122;6.840;2023-07-22T13:09:58;5.33;;;4.33;;
6019;SDS011;3038;51.122;6.840;2023-07-22T13:12:42;8.17;;;3.87;;
6019;SDS011;3038;51.122;6.840;2023-07-22T13:15:07;4.17;;;3.77;;
6019;SDS011;3038;51.122;6.840;2023-07-22T13:17:32;4.30;;;3.93;;
6019;SDS011;3038;51.122;6.840;2023-07-22T13:19:57;3.43;;;3.10;;
6019;SDS011;3038;51.122;6.840;2023-07-22T13:22:23;4.00;;;3.70;;
6019;SDS011;3038;51.122;6.840;2023-07-22T13:24:48;4.00;;;3.70;;
6019;SDS011;3038;51.122;6.840;2023-07-22T13:27:13;3.93;;;3.47;;
6019;SDS011;3038;51.122;6.840;2023-07-22T13:29:38;4.00;;;3.67;;
6019;SDS011;3038;51.122;6.840;2023-07-22T13:32:04;4.20;;;3.80;;
6019;SDS011;3038;51.122;6.840;2023-07-22T13:34:30;4.23;;;3.33;;
6019;SDS011;3038;51.122;6.840;2023-07-22T13:36:55;3.80;;;3.50;;
6019;SDS011;3038;51.122;6.840;2023-07-22T13:39:20;4.13;;;3.73;;
6019;SDS011;3038;51.122;6.840;2023-07-22T13:41:46;4.23;;;3.80;;
6019;SDS011;3038;51.122;6.840;2023-07-22T13:44:11;4.37;;;3.97;;
6019;SDS011;3038;51.122;6.840;2023-07-22T13:46:36;5.23;;;4.00;;
6019;SDS011;3038;51.122;6.840;2023-07-22T13:49:03;4.27;;;3.87;;
6019;SDS011;3038;51.122;6.840;2023-07-22T13:51:29;4.40;;;4.07;;
6019;SDS011;3038;51.122;6.840;2023-07-22T13:53:54;4.03;;;3.73;;
6019;SDS011;3038;51.122;6.840;2023-07-22T13:56:20;4.13;;;3.73;;
6019;SDS011;3038;51.122;6.840;2023-07-22T13:58:45;4.63;;;4.23;;
6019;SDS011;3038;51.122;6.840;2023-07-22T14:01:10;4.73;;;4.33;;
6019;SDS011;3038;51.122;6.840;2023-07-22T14:03:35;6.40;;;3.63;;
6019;SDS011;3038;51.122;6.840;2023-07-22T14:06:01;4.33;;;3.97;;
6019;SDS011;3038;51.122;6.840;2023-07-22T14:08:26;5.20;;;4.70;;
6019;SDS011;3038;51.122;6.840;2023-07-22T14:10:51;4.93;;;4.43;;
6019;SDS011;3038;51.122;6.840;2023-07-22T14:13:16;5.83;;;4.03;;
6019;SDS011;3038;51.122;6.840;2023-07-22T14:15:42;4.60;;;4.17;;
6019;SDS011;3038;51.122;6.840;2023-07-22T14:18:07;5.40;;;4.90;;
6019;SDS011;3038;51.122;6.840;2023-07-22T14:20:32;5.20;;;4.80;;
6019;SDS011;3038;51.122;6.840;2023-07-22T14:22:57;5.47;;;5.07;;
6019;SDS011;3038;51.122;6.840;2023-07-22T14:25:23;5.07;;;4.67;;
6019;SDS011;3038;51.122;6.840;2023-07-22T14:27:48;5.00;;;4.40;;
6019;SDS011;3038;51.122;6.840;2023-07-22T14:30:13;7.13;;;5.10;;
6019;SDS011;3038;51.122;6.840;2023-07-22T14:32:38;5.67;;;5.07;;
6019;SDS011;3038;51.122;6.840;2023-07-22T14:35:04;4.90;;;4.50;;
6019;SDS011;3038;51.122;6.840;2023-07-22T14:37:29;5.70;;;5.20;;
6019;SDS011;3038;51.122;6.840;2023-07-22T14:39:54;4.50;;;4.10;;
6019;SDS011;3038;51.122;6.840;2023-07-22T14:42:20;4.77;;;4.20;;
6019;SDS011;3038;51.122;6.840;2023-07-22T14:44:45;4.83;;;4.43;;
6019;SDS011;3038;51.122;6.840;2023-07-22T14:47:10;5.27;;;4.77;;
6019;SDS011;3038;51.122;6.840;2023-07-22T14:49:35;4.97;;;4.53;;
6019;SDS011;3038;51.122;6.840;2023-07-22T14:52:00;4.93;;;4.53;;
6019;SDS011;3038;51.122;6.840;2023-07-22T14:54:26;5.30;;;4.80;;
6019;SDS011;3038;51.122;6.840;2023-07-22T14:56:51;5.80;;;5.30;;
6019;SDS011;3038;51.122;6.840;2023-07-22T14:59:16;5.80;;;5.20;;
6019;SDS011;3038;51.122;6.840;2023-07-22T15:01:42;5.70;;;5.20;;
6019;SDS011;3038;51.122;6.840;2023-07-22T15:04:07;5.63;;;4.47;;
6019;SDS011;3038;51.122;6.840;2023-07-22T15:06:33;4.50;;;4.10;;
6019;SDS011;3038;51.122;6.840;2023-07-22T15:08:58;4.90;;;4.40;;
6019;SDS011;3038;51.122;6.840;2023-07-22T15:11:23;4.90;;;4.50;;
6019;SDS011;3038;51.122;6.840;2023-07-22T15:13:48;5.27;;;4.83;;